sensor_id;sensor_type;location;lat;lon;timestamp;temperature;humidity
25128;DHT22;13107;51.304;6.866;2023-07-13T00:01:50;16.20;99.90
25128;DHT22;13107;51.304;6.866;2023-07-13T00:06:00;16.20;99.90
25128;DHT22;13107;51.304;6.866;2023-07-13T00:10:03;16.30;99.90
25128;DHT22;13107;51.304;6.866;2023-07-13T00:14:05;16.20;99.90
25128;DHT22;13107;51.304;6.866;2023-07-13T00:18:07;16.10;99.90
25128;DHT22;13107;51.304;6.866;2023-07-13T00:22:09;16.10;99.90
25128;DHT22;13107;51.304;6.866;2023-07-13T00:26:12;16.10;99.90
25128;DHT22;13107;51.304;6.866;2023-07-13T00:30:15;15.80;99.90
25128;DHT22;13107;51.304;6.866;2023-07-13T00:34:17;15.70;99.90
25128;DHT22;13107;51.304;6.866;2023-07-13T00:38:19;15.60;99.90
25128;DHT22;13107;51.304;6.866;2023-07-13T00:42:22;15.40;99.90
25128;DHT22;13107;51.304;6.866;2023-07-13T00:46:28;15.20;99.90
25128;DHT22;13107;51.304;6.866;2023-07-13T00:50:30;15.10;99.90
25128;DHT22;13107;51.304;6.866;2023-07-13T00:54:39;15.00;99.90
25128;DHT22;13107;51.304;6.866;2023-07-13T00:58:42;14.90;99.90
25128;DHT22;13107;51.304;6.866;2023-07-13T01:02:45;14.80;99.90
25128;DHT22;13107;51.304;6.866;2023-07-13T01:06:48;14.80;99.90
25128;DHT22;13107;51.304;6.866;2023-07-13T01:10:55;14.80;99.90
25128;DHT22;13107;51.304;6.866;2023-07-13T01:15:01;14.80;99.90
25128;DHT22;13107;51.304;6.866;2023-07-13T01:19:12;14.80;99.90
25128;DHT22;13107;51.304;6.866;2023-07-13T01:23:16;14.80;99.90
25128;DHT22;13107;51.304;6.866;2023-07-13T01:27:23;15.00;99.90
25128;DHT22;13107;51.304;6.866;2023-07-13T01:31:26;15.10;99.90
25128;DHT22;13107;51.304;6.866;2023-07-13T01:35:28;15.10;99.90
25128;DHT22;13107;51.304;6.866;2023-07-13T01:39:30;15.10;99.90
25128;DHT22;13107;51.304;6.866;2023-07-13T01:43:33;15.10;99.90
25128;DHT22;13107;51.304;6.866;2023-07-13T01:47:35;15.00;99.90
25128;DHT22;13107;51.304;6.866;2023-07-13T01:51:37;15.10;99.90
25128;DHT22;13107;51.304;6.866;2023-07-13T01:55:39;15.00;99.90
25128;DHT22;13107;51.304;6.866;2023-07-13T01:59:40;15.10;99.90
25128;DHT22;13107;51.304;6.866;2023-07-13T02:03:42;15.00;99.90
25128;DHT22;13107;51.304;6.866;2023-07-13T02:07:44;14.90;99.90
25128;DHT22;13107;51.304;6.866;2023-07-13T02:11:46;15.00;99.90
25128;DHT22;13107;51.304;6.866;2023-07-13T02:15:51;14.80;99.90
25128;DHT22;13107;51.304;6.866;2023-07-13T02:19:53;14.70;99.90
25128;DHT22;13107;51.304;6.866;2023-07-13T02:23:55;14.70;99.90
25128;DHT22;13107;51.304;6.866;2023-07-13T02:27:59;14.50;99.90
25128;DHT22;13107;51.304;6.866;2023-07-13T02:32:01;14.40;99.90
25128;DHT22;13107;51.304;6.866;2023-07-13T02:36:03;14.40;99.90
25128;DHT22;13107;51.304;6.866;2023-07-13T02:40:07;14.40;99.90
25128;DHT22;13107;51.304;6.866;2023-07-13T02:44:12;14.40;99.90
25128;DHT22;13107;51.304;6.866;2023-07-13T02:48:14;14.40;99.90
25128;DHT22;13107;51.304;6.866;2023-07-13T02:52:16;14.60;99.90
25128;DHT22;13107;51.304;6.866;2023-07-13T02:56:30;14.70;99.90
25128;DHT22;13107;51.304;6.866;2023-07-13T03:00:32;14.70;99.90
25128;DHT22;13107;51.304;6.866;2023-07-13T03:04:35;14.80;99.90
25128;DHT22;13107;51.304;6.866;2023-07-13T03:08:37;14.80;99.90
25128;DHT22;13107;51.304;6.866;2023-07-13T03:12:39;14.80;99.90
25128;DHT22;13107;51.304;6.866;2023-07-13T03:16:41;14.80;99.90
25128;DHT22;13107;51.304;6.866;2023-07-13T03:20:43;14.80;99.90
25128;DHT22;13107;51.304;6.866;2023-07-13T03:24:46;14.80;99.90
25128;DHT22;13107;51.304;6.866;2023-07-13T03:28:48;14.70;99.90
25128;DHT22;13107;51.304;6.866;2023-07-13T03:32:50;14.80;99.90
25128;DHT22;13107;51.304;6.866;2023-07-13T03:36:54;14.90;99.90
25128;DHT22;13107;51.304;6.866;2023-07-13T03:40:56;15.10;99.90
25128;DHT22;13107;51.304;6.866;2023-07-13T03:44:58;15.10;99.90
25128;DHT22;13107;51.304;6.866;2023-07-13T03:49:01;15.10;99.90
25128;DHT22;13107;51.304;6.866;2023-07-13T03:53:03;15.00;99.90
25128;DHT22;13107;51.304;6.866;2023-07-13T03:57:05;15.10;99.90
25128;DHT22;13107;51.304;6.866;2023-07-13T04:01:09;15.20;99.90
25128;DHT22;13107;51.304;6.866;2023-07-13T04:05:11;15.20;99.90
25128;DHT22;13107;51.304;6.866;2023-07-13T04:09:13;15.20;99.90
25128;DHT22;13107;51.304;6.866;2023-07-13T04:13:15;15.30;99.90
25128;DHT22;13107;51.304;6.866;2023-07-13T04:17:16;15.40;99.90
25128;DHT22;13107;51.304;6.866;2023-07-13T04:21:18;15.50;99.90
25128;DHT22;13107;51.304;6.866;2023-07-13T04:25:21;15.50;99.90
25128;DHT22;13107;51.304;6.866;2023-07-13T04:29:23;15.60;99.90
25128;DHT22;13107;51.304;6.866;2023-07-13T04:33:26;15.70;99.90
25128;DHT22;13107;51.304;6.866;2023-07-13T04:37:28;15.70;99.90
25128;DHT22;13107;51.304;6.866;2023-07-13T04:41:31;15.80;99.90
25128;DHT22;13107;51.304;6.866;2023-07-13T04:45:35;15.90;99.90
25128;DHT22;13107;51.304;6.866;2023-07-13T04:49:36;16.00;99.90
25128;DHT22;13107;51.304;6.866;2023-07-13T04:53:38;16.00;99.90
25128;DHT22;13107;51.304;6.866;2023-07-13T04:57:40;16.00;99.90
25128;DHT22;13107;51.304;6.866;2023-07-13T05:01:42;16.10;99.90
25128;DHT22;13107;51.304;6.866;2023-07-13T05:05:55;16.10;99.90
25128;DHT22;13107;51.304;6.866;2023-07-13T05:09:57;16.20;99.90
25128;DHT22;13107;51.304;6.866;2023-07-13T05:13:59;16.20;99.90
25128;DHT22;13107;51.304;6.866;2023-07-13T05:18:02;16.20;99.90
25128;DHT22;13107;51.304;6.866;2023-07-13T05:22:04;16.30;99.90
25128;DHT22;13107;51.304;6.866;2023-07-13T05:26:06;16.30;99.90
25128;DHT22;13107;51.304;6.866;2023-07-13T05:30:10;16.40;99.90
25128;DHT22;13107;51.304;6.866;2023-07-13T05:34:13;16.50;99.90
25128;DHT22;13107;51.304;6.866;2023-07-13T05:38:15;16.50;99.90
25128;DHT22;13107;51.304;6.866;2023-07-13T05:42:17;16.50;99.90
25128;DHT22;13107;51.304;6.866;2023-07-13T05:46:18;16.50;99.90
25128;DHT22;13107;51.304;6.866;2023-07-13T05:50:20;16.40;99.90
25128;DHT22;13107;51.304;6.866;2023-07-13T05:54:23;16.50;99.90
25128;DHT22;13107;51.304;6.866;2023-07-13T05:58:24;16.50;99.90
25128;DHT22;13107;51.304;6.866;2023-07-13T06:02:27;16.90;99.90
25128;DHT22;13107;51.304;6.866;2023-07-13T06:06:30;17.20;99.90
25128;DHT22;13107;51.304;6.866;2023-07-13T06:10:37;17.60;99.90
25128;DHT22;13107;51.304;6.866;2023-07-13T06:14:39;17.90;99.90
25128;DHT22;13107;51.304;6.866;2023-07-13T06:18:42;18.20;99.90
25128;DHT22;13107;51.304;6.866;2023-07-13T06:22:44;18.70;99.90
25128;DHT22;13107;51.304;6.866;2023-07-13T06:26:46;19.10;99.90
25128;DHT22;13107;51.304;6.866;2023-07-13T06:30:47;18.80;99.90
25128;DHT22;13107;51.304;6.866;2023-07-13T06:34:49;18.60;99.90
25128;DHT22;13107;51.304;6.866;2023-07-13T06:38:53;18.60;99.90
25128;DHT22;13107;51.304;6.866;2023-07-13T06:42:55;18.80;99.90
25128;DHT22;13107;51.304;6.866;2023-07-13T06:46:57;18.90;99.90
25128;DHT22;13107;51.304;6.866;2023-07-13T06:50:58;18.80;99.90
25128;DHT22;13107;51.304;6.866;2023-07-13T06:55:01;18.90;99.90
25128;DHT22;13107;51.304;6.866;2023-07-13T06:59:02;19.50;99.90
25128;DHT22;13107;51.304;6.866;2023-07-13T07:03:04;19.90;99.90
25128;DHT22;13107;51.304;6.866;2023-07-13T07:07:06;19.70;99.90
25128;DHT22;13107;51.304;6.866;2023-07-13T07:11:13;19.20;99.90
25128;DHT22;13107;51.304;6.866;2023-07-13T07:15:15;19.00;99.90
25128;DHT22;13107;51.304;6.866;2023-07-13T07:19:17;18.80;99.90
25128;DHT22;13107;51.304;6.866;2023-07-13T07:23:19;18.60;99.90
25128;DHT22;13107;51.304;6.866;2023-07-13T07:27:21;18.50;99.90
25128;DHT22;13107;51.304;6.866;2023-07-13T07:31:26;18.50;99.90
25128;DHT22;13107;51.304;6.866;2023-07-13T07:35:30;18.50;99.90
25128;DHT22;13107;51.304;6.866;2023-07-13T07:39:37;18.60;99.90
25128;DHT22;13107;51.304;6.866;2023-07-13T07:43:44;18.60;99.90
25128;DHT22;13107;51.304;6.866;2023-07-13T07:47:46;18.50;99.90
25128;DHT22;13107;51.304;6.866;2023-07-13T07:51:48;18.60;99.90
25128;DHT22;13107;51.304;6.866;2023-07-13T07:55:49;18.70;99.90
25128;DHT22;13107;51.304;6.866;2023-07-13T07:59:55;18.90;99.90
25128;DHT22;13107;51.304;6.866;2023-07-13T08:04:00;18.90;99.90
25128;DHT22;13107;51.304;6.866;2023-07-13T08:08:05;19.00;99.90
25128;DHT22;13107;51.304;6.866;2023-07-13T08:12:07;19.50;99.90
25128;DHT22;13107;51.304;6.866;2023-07-13T08:16:12;19.90;99.90
25128;DHT22;13107;51.304;6.866;2023-07-13T08:20:14;20.00;99.90
25128;DHT22;13107;51.304;6.866;2023-07-13T08:24:16;20.00;99.90
25128;DHT22;13107;51.304;6.866;2023-07-13T08:28:21;20.00;99.90
25128;DHT22;13107;51.304;6.866;2023-07-13T08:32:23;20.40;99.90
25128;DHT22;13107;51.304;6.866;2023-07-13T08:36:25;20.60;99.90
25128;DHT22;13107;51.304;6.866;2023-07-13T08:40:28;20.40;99.90
25128;DHT22;13107;51.304;6.866;2023-07-13T08:45:38;20.60;99.90
25128;DHT22;13107;51.304;6.866;2023-07-13T08:49:15;20.80;99.90
25128;DHT22;13107;51.304;6.866;2023-07-13T08:53:18;20.60;99.90
25128;DHT22;13107;51.304;6.866;2023-07-13T08:57:27;20.50;99.90
25128;DHT22;13107;51.304;6.866;2023-07-13T09:01:45;20.40;99.90
25128;DHT22;13107;51.304;6.866;2023-07-13T09:05:52;20.20;99.90
25128;DHT22;13107;51.304;6.866;2023-07-13T09:10:20;20.50;99.90
25128;DHT22;13107;51.304;6.866;2023-07-13T09:14:30;20.50;99.90
25128;DHT22;13107;51.304;6.866;2023-07-13T09:18:39;20.80;99.90
25128;DHT22;13107;51.304;6.866;2023-07-13T09:22:46;21.00;99.90
25128;DHT22;13107;51.304;6.866;2023-07-13T09:26:48;20.80;99.90
25128;DHT22;13107;51.304;6.866;2023-07-13T09:31:03;20.90;99.90
25128;DHT22;13107;51.304;6.866;2023-07-13T09:35:11;20.80;99.90
25128;DHT22;13107;51.304;6.866;2023-07-13T09:39:28;20.70;99.90
25128;DHT22;13107;51.304;6.866;2023-07-13T09:43:31;20.60;99.90
25128;DHT22;13107;51.304;6.866;2023-07-13T09:47:38;20.70;99.90
25128;DHT22;13107;51.304;6.866;2023-07-13T09:51:42;20.80;99.90
25128;DHT22;13107;51.304;6.866;2023-07-13T09:55:47;20.80;99.90
25128;DHT22;13107;51.304;6.866;2023-07-13T09:59:55;20.70;99.90
25128;DHT22;13107;51.304;6.866;2023-07-13T10:03:58;21.00;99.90
25128;DHT22;13107;51.304;6.866;2023-07-13T10:08:00;21.20;99.90
25128;DHT22;13107;51.304;6.866;2023-07-13T10:12:01;21.30;99.90
25128;DHT22;13107;51.304;6.866;2023-07-13T10:16:04;21.70;99.90
25128;DHT22;13107;51.304;6.866;2023-07-13T10:20:08;21.70;99.90
25128;DHT22;13107;51.304;6.866;2023-07-13T10:24:20;21.90;99.90
25128;DHT22;13107;51.304;6.866;2023-07-13T10:28:30;22.60;99.90
25128;DHT22;13107;51.304;6.866;2023-07-13T10:32:33;22.80;99.90
25128;DHT22;13107;51.304;6.866;2023-07-13T10:36:46;22.90;99.90
25128;DHT22;13107;51.304;6.866;2023-07-13T10:41:03;22.60;99.90
25128;DHT22;13107;51.304;6.866;2023-07-13T10:45:21;22.40;99.90
25128;DHT22;13107;51.304;6.866;2023-07-13T10:49:26;22.50;99.90
25128;DHT22;13107;51.304;6.866;2023-07-13T10:57:42;22.40;99.90
25128;DHT22;13107;51.304;6.866;2023-07-13T11:02:09;22.30;99.90
25128;DHT22;13107;51.304;6.866;2023-07-13T11:10:46;22.10;99.90
25128;DHT22;13107;51.304;6.866;2023-07-13T11:23:19;21.80;99.90
25128;DHT22;13107;51.304;6.866;2023-07-13T11:28:05;21.80;99.90
25128;DHT22;13107;51.304;6.866;2023-07-13T11:31:52;22.40;99.90
25128;DHT22;13107;51.304;6.866;2023-07-13T11:36:19;22.90;99.90
25128;DHT22;13107;51.304;6.866;2023-07-13T11:40:23;23.50;99.90
25128;DHT22;13107;51.304;6.866;2023-07-13T11:44:33;23.50;99.90
25128;DHT22;13107;51.304;6.866;2023-07-13T11:48:37;24.10;99.90
25128;DHT22;13107;51.304;6.866;2023-07-13T11:52:39;24.30;99.90
25128;DHT22;13107;51.304;6.866;2023-07-13T11:56:42;24.90;99.90
25128;DHT22;13107;51.304;6.866;2023-07-13T12:00:44;24.70;99.90
25128;DHT22;13107;51.304;6.866;2023-07-13T12:04:46;24.50;99.90
25128;DHT22;13107;51.304;6.866;2023-07-13T12:08:48;24.30;99.90
25128;DHT22;13107;51.304;6.866;2023-07-13T12:12:55;24.30;99.90
25128;DHT22;13107;51.304;6.866;2023-07-13T12:16:57;24.20;99.90
25128;DHT22;13107;51.304;6.866;2023-07-13T12:20:59;24.20;99.90
25128;DHT22;13107;51.304;6.866;2023-07-13T12:25:01;24.60;99.90
25128;DHT22;13107;51.304;6.866;2023-07-13T12:29:06;25.40;99.90
25128;DHT22;13107;51.304;6.866;2023-07-13T12:33:12;25.60;99.90
25128;DHT22;13107;51.304;6.866;2023-07-13T12:37:14;25.60;99.90
25128;DHT22;13107;51.304;6.866;2023-07-13T12:41:17;24.40;99.90
25128;DHT22;13107;51.304;6.866;2023-07-13T12:45:24;23.50;99.90
25128;DHT22;13107;51.304;6.866;2023-07-13T12:49:30;23.10;99.90
25128;DHT22;13107;51.304;6.866;2023-07-13T12:53:41;23.20;99.90
25128;DHT22;13107;51.304;6.866;2023-07-13T12:58:03;22.90;99.90
25128;DHT22;13107;51.304;6.866;2023-07-13T13:02:32;22.70;99.90
25128;DHT22;13107;51.304;6.866;2023-07-13T13:06:36;22.40;99.90
25128;DHT22;13107;51.304;6.866;2023-07-13T13:10:39;22.20;99.90
25128;DHT22;13107;51.304;6.866;2023-07-13T13:14:41;22.10;99.90
25128;DHT22;13107;51.304;6.866;2023-07-13T13:18:42;22.00;99.90
25128;DHT22;13107;51.304;6.866;2023-07-13T13:22:44;22.30;99.90
25128;DHT22;13107;51.304;6.866;2023-07-13T13:26:48;22.60;99.90
25128;DHT22;13107;51.304;6.866;2023-07-13T13:30:50;22.60;99.90
25128;DHT22;13107;51.304;6.866;2023-07-13T13:34:52;23.10;99.90
25128;DHT22;13107;51.304;6.866;2023-07-13T13:38:55;23.50;99.90
25128;DHT22;13107;51.304;6.866;2023-07-13T13:42:57;23.30;99.90
25128;DHT22;13107;51.304;6.866;2023-07-13T13:47:02;23.00;99.90
25128;DHT22;13107;51.304;6.866;2023-07-13T13:51:22;22.40;99.90
25128;DHT22;13107;51.304;6.866;2023-07-13T13:55:25;22.00;99.90
25128;DHT22;13107;51.304;6.866;2023-07-13T13:59:27;21.80;99.90
25128;DHT22;13107;51.304;6.866;2023-07-13T14:03:29;21.80;99.90
25128;DHT22;13107;51.304;6.866;2023-07-13T14:07:31;22.30;99.90
25128;DHT22;13107;51.304;6.866;2023-07-13T14:11:33;23.00;99.90
25128;DHT22;13107;51.304;6.866;2023-07-13T14:15:35;23.50;99.90
25128;DHT22;13107;51.304;6.866;2023-07-13T14:19:36;23.70;99.90
25128;DHT22;13107;51.304;6.866;2023-07-13T14:23:38;24.30;99.90
25128;DHT22;13107;51.304;6.866;2023-07-13T14:27:42;24.60;99.90
25128;DHT22;13107;51.304;6.866;2023-07-13T14:31:44;24.50;99.90
25128;DHT22;13107;51.304;6.866;2023-07-13T14:35:47;24.40;99.90
25128;DHT22;13107;51.304;6.866;2023-07-13T14:39:51;23.70;99.90
25128;DHT22;13107;51.304;6.866;2023-07-13T14:43:53;23.40;99.90
25128;DHT22;13107;51.304;6.866;2023-07-13T14:47:56;23.20;99.90
25128;DHT22;13107;51.304;6.866;2023-07-13T14:52:11;23.00;99.90
25128;DHT22;13107;51.304;6.866;2023-07-13T14:56:13;22.60;99.90
25128;DHT22;13107;51.304;6.866;2023-07-13T15:00:18;22.40;99.90
25128;DHT22;13107;51.304;6.866;2023-07-13T15:04:20;22.20;99.90
25128;DHT22;13107;51.304;6.866;2023-07-13T15:08:22;22.00;99.90
25128;DHT22;13107;51.304;6.866;2023-07-13T15:12:25;21.90;99.90
25128;DHT22;13107;51.304;6.866;2023-07-13T15:16:27;21.80;99.90
25128;DHT22;13107;51.304;6.866;2023-07-13T15:20:32;21.50;99.90
25128;DHT22;13107;51.304;6.866;2023-07-13T15:24:35;21.40;99.90
25128;DHT22;13107;51.304;6.866;2023-07-13T15:28:39;21.40;99.90
25128;DHT22;13107;51.304;6.866;2023-07-13T15:32:45;21.30;99.90
25128;DHT22;13107;51.304;6.866;2023-07-13T15:36:47;21.40;99.90
25128;DHT22;13107;51.304;6.866;2023-07-13T15:40:50;21.30;99.90
25128;DHT22;13107;51.304;6.866;2023-07-13T15:44:52;21.20;99.90
25128;DHT22;13107;51.304;6.866;2023-07-13T15:48:57;21.10;99.90
25128;DHT22;13107;51.304;6.866;2023-07-13T15:52:59;20.90;99.90
25128;DHT22;13107;51.304;6.866;2023-07-13T15:57:04;20.60;99.90
25128;DHT22;13107;51.304;6.866;2023-07-13T16:01:11;20.50;99.90
25128;DHT22;13107;51.304;6.866;2023-07-13T16:05:13;20.30;99.90
25128;DHT22;13107;51.304;6.866;2023-07-13T16:09:19;20.10;99.90
25128;DHT22;13107;51.304;6.866;2023-07-13T16:13:23;20.10;99.90
25128;DHT22;13107;51.304;6.866;2023-07-13T16:17:26;20.00;99.90
25128;DHT22;13107;51.304;6.866;2023-07-13T16:21:40;20.00;99.90
25128;DHT22;13107;51.304;6.866;2023-07-13T16:25:43;20.00;99.90
25128;DHT22;13107;51.304;6.866;2023-07-13T16:29:46;19.90;99.90
25128;DHT22;13107;51.304;6.866;2023-07-13T16:33:48;20.00;99.90
25128;DHT22;13107;51.304;6.866;2023-07-13T16:37:50;20.10;99.90
25128;DHT22;13107;51.304;6.866;2023-07-13T16:42:03;19.90;99.90
25128;DHT22;13107;51.304;6.866;2023-07-13T16:46:10;19.90;99.90
25128;DHT22;13107;51.304;6.866;2023-07-13T16:50:15;19.90;99.90
25128;DHT22;13107;51.304;6.866;2023-07-13T16:54:18;20.00;99.90
25128;DHT22;13107;51.304;6.866;2023-07-13T16:58:20;19.80;99.90
25128;DHT22;13107;51.304;6.866;2023-07-13T17:06:29;19.90;99.90
25128;DHT22;13107;51.304;6.866;2023-07-13T17:10:31;19.80;99.90
25128;DHT22;13107;51.304;6.866;2023-07-13T17:14:33;19.90;99.90
25128;DHT22;13107;51.304;6.866;2023-07-13T17:18:37;19.90;99.90
25128;DHT22;13107;51.304;6.866;2023-07-13T17:22:40;19.80;99.90
25128;DHT22;13107;51.304;6.866;2023-07-13T17:26:41;19.90;99.90
25128;DHT22;13107;51.304;6.866;2023-07-13T17:30:44;19.90;99.90
25128;DHT22;13107;51.304;6.866;2023-07-13T17:34:46;20.00;99.90
25128;DHT22;13107;51.304;6.866;2023-07-13T17:38:49;20.00;99.90
25128;DHT22;13107;51.304;6.866;2023-07-13T17:42:53;20.10;99.90
25128;DHT22;13107;51.304;6.866;2023-07-13T17:46:59;20.20;99.90
25128;DHT22;13107;51.304;6.866;2023-07-13T17:51:01;20.20;99.90
25128;DHT22;13107;51.304;6.866;2023-07-13T17:55:18;20.30;99.90
25128;DHT22;13107;51.304;6.866;2023-07-13T17:59:22;20.40;99.90
25128;DHT22;13107;51.304;6.866;2023-07-13T18:03:26;20.30;99.90
25128;DHT22;13107;51.304;6.866;2023-07-13T18:07:36;20.30;99.90
25128;DHT22;13107;51.304;6.866;2023-07-13T18:11:38;20.30;99.90
25128;DHT22;13107;51.304;6.866;2023-07-13T18:15:39;20.40;99.90
25128;DHT22;13107;51.304;6.866;2023-07-13T18:19:46;20.40;99.90
25128;DHT22;13107;51.304;6.866;2023-07-13T18:23:48;20.30;99.90
25128;DHT22;13107;51.304;6.866;2023-07-13T18:27:51;20.20;99.90
25128;DHT22;13107;51.304;6.866;2023-07-13T18:31:53;20.10;99.90
25128;DHT22;13107;51.304;6.866;2023-07-13T18:36:00;20.00;99.90
25128;DHT22;13107;51.304;6.866;2023-07-13T18:40:04;20.00;99.90
25128;DHT22;13107;51.304;6.866;2023-07-13T18:44:09;19.80;99.90
25128;DHT22;13107;51.304;6.866;2023-07-13T18:48:15;19.80;99.90
25128;DHT22;13107;51.304;6.866;2023-07-13T18:52:20;19.70;99.90
25128;DHT22;13107;51.304;6.866;2023-07-13T18:56:22;19.60;99.90
25128;DHT22;13107;51.304;6.866;2023-07-13T19:00:25;19.60;99.90
25128;DHT22;13107;51.304;6.866;2023-07-13T19:04:30;19.40;99.90
25128;DHT22;13107;51.304;6.866;2023-07-13T19:08:32;19.50;99.90
25128;DHT22;13107;51.304;6.866;2023-07-13T19:12:34;19.20;99.90
25128;DHT22;13107;51.304;6.866;2023-07-13T19:16:37;19.10;99.90
25128;DHT22;13107;51.304;6.866;2023-07-13T19:20:40;19.00;99.90
25128;DHT22;13107;51.304;6.866;2023-07-13T19:24:43;18.90;99.90
25128;DHT22;13107;51.304;6.866;2023-07-13T19:28:45;18.60;99.90
25128;DHT22;13107;51.304;6.866;2023-07-13T19:32:47;18.40;99.90
25128;DHT22;13107;51.304;6.866;2023-07-13T19:37:02;18.20;99.90
25128;DHT22;13107;51.304;6.866;2023-07-13T19:41:07;18.00;99.90
25128;DHT22;13107;51.304;6.866;2023-07-13T19:45:21;17.80;99.90
25128;DHT22;13107;51.304;6.866;2023-07-13T19:49:23;17.60;99.90
25128;DHT22;13107;51.304;6.866;2023-07-13T19:53:24;17.50;99.90
25128;DHT22;13107;51.304;6.866;2023-07-13T19:57:28;17.20;99.90
25128;DHT22;13107;51.304;6.866;2023-07-13T20:01:30;17.00;99.90
25128;DHT22;13107;51.304;6.866;2023-07-13T20:05:34;16.90;99.90
25128;DHT22;13107;51.304;6.866;2023-07-13T20:09:38;16.70;99.90
25128;DHT22;13107;51.304;6.866;2023-07-13T20:13:44;16.50;99.90
25128;DHT22;13107;51.304;6.866;2023-07-13T20:17:50;16.30;99.90
25128;DHT22;13107;51.304;6.866;2023-07-13T20:21:52;16.20;99.90
25128;DHT22;13107;51.304;6.866;2023-07-13T20:25:54;16.20;99.90
25128;DHT22;13107;51.304;6.866;2023-07-13T20:29:56;16.20;99.90
25128;DHT22;13107;51.304;6.866;2023-07-13T20:34:01;16.00;99.90
25128;DHT22;13107;51.304;6.866;2023-07-13T20:38:04;15.90;99.90
25128;DHT22;13107;51.304;6.866;2023-07-13T20:42:10;16.00;99.90
25128;DHT22;13107;51.304;6.866;2023-07-13T20:46:15;15.90;99.90
25128;DHT22;13107;51.304;6.866;2023-07-13T20:50:25;15.90;99.90
25128;DHT22;13107;51.304;6.866;2023-07-13T20:54:27;15.80;99.90
25128;DHT22;13107;51.304;6.866;2023-07-13T20:58:29;15.80;99.90
25128;DHT22;13107;51.304;6.866;2023-07-13T21:02:32;15.70;99.90
25128;DHT22;13107;51.304;6.866;2023-07-13T21:06:34;15.70;99.90
25128;DHT22;13107;51.304;6.866;2023-07-13T21:10:36;15.60;99.90
25128;DHT22;13107;51.304;6.866;2023-07-13T21:14:38;15.50;99.90
25128;DHT22;13107;51.304;6.866;2023-07-13T21:18:41;15.40;99.90
25128;DHT22;13107;51.304;6.866;2023-07-13T21:22:43;15.30;99.90
25128;DHT22;13107;51.304;6.866;2023-07-13T21:26:45;15.30;99.90
25128;DHT22;13107;51.304;6.866;2023-07-13T21:30:46;15.10;99.90
25128;DHT22;13107;51.304;6.866;2023-07-13T21:34:48;15.00;99.90
25128;DHT22;13107;51.304;6.866;2023-07-13T21:38:55;14.90;99.90
25128;DHT22;13107;51.304;6.866;2023-07-13T21:42:58;14.90;99.90
25128;DHT22;13107;51.304;6.866;2023-07-13T21:47:00;14.80;99.90
25128;DHT22;13107;51.304;6.866;2023-07-13T21:51:10;14.70;99.90
25128;DHT22;13107;51.304;6.866;2023-07-13T21:55:22;14.70;99.90
25128;DHT22;13107;51.304;6.866;2023-07-13T21:59:26;14.70;99.90
25128;DHT22;13107;51.304;6.866;2023-07-13T22:03:30;14.60;99.90
25128;DHT22;13107;51.304;6.866;2023-07-13T22:07:33;14.40;99.90
25128;DHT22;13107;51.304;6.866;2023-07-13T22:11:35;14.40;99.90
25128;DHT22;13107;51.304;6.866;2023-07-13T22:15:38;14.50;99.90
25128;DHT22;13107;51.304;6.866;2023-07-13T22:19:40;14.40;99.90
25128;DHT22;13107;51.304;6.866;2023-07-13T22:23:42;14.20;99.90
25128;DHT22;13107;51.304;6.866;2023-07-13T22:27:45;14.20;99.90
25128;DHT22;13107;51.304;6.866;2023-07-13T22:31:47;14.10;99.90
25128;DHT22;13107;51.304;6.866;2023-07-13T22:35:50;14.20;99.90
25128;DHT22;13107;51.304;6.866;2023-07-13T22:39:53;14.10;99.90
25128;DHT22;13107;51.304;6.866;2023-07-13T22:43:54;14.00;99.90
25128;DHT22;13107;51.304;6.866;2023-07-13T22:47:57;13.90;99.90
25128;DHT22;13107;51.304;6.866;2023-07-13T22:52:02;13.90;99.90
25128;DHT22;13107;51.304;6.866;2023-07-13T22:56:04;13.90;99.90
25128;DHT22;13107;51.304;6.866;2023-07-13T23:00:07;13.80;99.90
25128;DHT22;13107;51.304;6.866;2023-07-13T23:08:18;13.80;99.90
25128;DHT22;13107;51.304;6.866;2023-07-13T23:12:20;13.80;99.90
25128;DHT22;13107;51.304;6.866;2023-07-13T23:16:23;13.70;99.90
25128;DHT22;13107;51.304;6.866;2023-07-13T23:20:33;13.60;99.90
25128;DHT22;13107;51.304;6.866;2023-07-13T23:24:35;13.50;99.90
25128;DHT22;13107;51.304;6.866;2023-07-13T23:28:37;13.50;99.90
25128;DHT22;13107;51.304;6.866;2023-07-13T23:32:39;13.60;99.90
25128;DHT22;13107;51.304;6.866;2023-07-13T23:36:41;13.50;99.90
25128;DHT22;13107;51.304;6.866;2023-07-13T23:40:43;13.40;99.90
25128;DHT22;13107;51.304;6.866;2023-07-13T23:44:45;13.40;99.90
25128;DHT22;13107;51.304;6.866;2023-07-13T23:48:47;13.40;99.90
25128;DHT22;13107;51.304;6.866;2023-07-13T23:52:50;13.40;99.90
25128;DHT22;13107;51.304;6.866;2023-07-13T23:56:52;13.40;99.90
